Time;durP1;ratioP1;P1;durP2;ratioP2;P2;SDS_P1;SDS_P2;PMS_P1;PMS_P2;Temp;Humidity;BMP_temperature;BMP_pressure;BME280_temperature;BME280_humidity;BME280_pressure;Samples;Min_cycle;Max_cycle;Signal;HPM_P1;HPM_P2
2023/10/13 00:01:15;;;;;;;9.98;6.43;;;19.70;96.70;;;;;;5033096;28;20046;-82
2023/10/13 00:03:45;;;;;;;9.90;6.47;;;19.70;96.70;;;;;;4986555;28;20064;-82
2023/10/13 00:06:13;;;;;;;8.15;6.55;;;19.80;96.70;;;;;;4999313;28;20094;-81
2023/10/13 00:08:41;;;;;;;8.27;5.78;;;19.80;96.70;;;;;;5006782;28;20046;-81
2023/10/13 00:11:13;;;;;;;8.88;6.25;;;19.70;96.70;;;;;;5015394;28;20053;-81
2023/10/13 00:13:43;;;;;;;7.60;6.18;;;19.60;96.70;;;;;;5019334;28;20667;-82
2023/10/13 00:16:17;;;;;;;7.22;5.80;;;19.60;96.70;;;;;;5001581;28;20107;-82
2023/10/13 00:18:45;;;;;;;7.18;6.03;;;19.60;96.70;;;;;;5021949;28;20049;-81
2023/10/13 00:21:15;;;;;;;6.72;5.82;;;19.60;96.70;;;;;;5008329;28;20563;-81
2023/10/13 00:23:54;;;;;;;6.13;5.20;;;19.60;96.70;;;;;;4995185;28;20111;-81
2023/10/13 00:26:27;;;;;;;6.63;5.38;;;19.60;96.70;;;;;;4997732;28;20565;-82
2023/10/13 00:29:09;;;;;;;7.72;5.00;;;19.50;96.70;;;;;;5009203;28;20051;-81
2023/10/13 00:31:43;;;;;;;7.88;6.18;;;19.50;96.70;;;;;;5023260;28;20144;-81
2023/10/13 00:34:46;;;;;;;7.85;5.80;;;19.40;96.70;;;;;;5006172;28;20363;-82
2023/10/13 00:37:18;;;;;;;7.45;5.85;;;19.50;96.70;;;;;;4998790;28;20057;-81
2023/10/13 00:39:47;;;;;;;8.32;5.57;;;19.50;96.70;;;;;;5007617;28;20058;-81
2023/10/13 00:42:19;;;;;;;9.07;6.10;;;19.50;96.70;;;;;;5000626;28;20512;-81
2023/10/13 00:44:54;;;;;;;6.35;5.55;;;19.40;96.70;;;;;;5018491;28;20042;-81
2023/10/13 00:50:05;;;;;;;6.40;5.78;;;19.50;96.70;;;;;;5021246;28;20052;-81
2023/10/13 00:52:36;;;;;;;6.80;5.40;;;19.50;96.70;;;;;;5017768;28;20042;-81
2023/10/13 00:55:08;;;;;;;7.97;6.22;;;19.50;96.70;;;;;;4993496;28;20533;-81
2023/10/13 00:57:37;;;;;;;7.70;6.50;;;19.50;96.70;;;;;;4994583;28;20080;-81
2023/10/13 01:00:18;;;;;;;7.38;6.57;;;19.50;96.70;;;;;;5003693;28;20070;-81
2023/10/13 01:02:55;;;;;;;8.57;6.18;;;19.50;96.70;;;;;;4984710;28;20662;-81
2023/10/13 01:05:25;;;;;;;6.80;6.10;;;19.50;96.70;;;;;;5000444;28;20045;-81
2023/10/13 01:07:54;;;;;;;8.50;5.90;;;19.40;96.70;;;;;;5007568;28;20109;-81
2023/10/13 01:10:27;;;;;;;7.53;6.65;;;19.30;96.70;;;;;;4998800;28;20041;-80
2023/10/13 01:12:59;;;;;;;5.95;5.38;;;19.30;96.70;;;;;;4990301;28;20205;-81
2023/10/13 01:15:30;;;;;;;10.85;6.15;;;19.40;96.70;;;;;;4989559;28;20053;-80
2023/10/13 01:18:12;;;;;;;6.90;5.95;;;19.30;96.70;;;;;;5007049;28;20471;-80
2023/10/13 01:20:45;;;;;;;7.35;6.40;;;19.30;96.70;;;;;;4990603;28;20050;-80
2023/10/13 01:23:28;;;;;;;8.50;6.97;;;19.20;96.70;;;;;;4996727;28;20053;-81
2023/10/13 01:25:56;;;;;;;7.22;6.13;;;19.20;96.70;;;;;;5001012;28;20050;-80
2023/10/13 01:28:28;;;;;;;7.18;6.30;;;19.20;96.70;;;;;;5015544;28;20046;-80
2023/10/13 01:30:57;;;;;;;7.50;5.80;;;19.20;96.70;;;;;;4989623;28;20522;-80
2023/10/13 01:33:29;;;;;;;7.10;6.40;;;19.20;96.70;;;;;;5009591;28;20100;-80
2023/10/13 01:35:58;;;;;;;7.50;6.10;;;19.10;96.70;;;;;;4990904;28;20057;-80
2023/10/13 01:38:33;;;;;;;8.95;6.05;;;19.10;96.70;;;;;;5012078;28;20042;-81
2023/10/13 01:41:04;;;;;;;7.85;6.75;;;19.10;96.70;;;;;;5013880;28;20056;-80
2023/10/13 01:43:32;;;;;;;7.78;6.43;;;19.10;96.70;;;;;;5001053;28;20117;-80
2023/10/13 01:46:03;;;;;;;11.07;6.75;;;19.10;96.70;;;;;;5013517;28;20049;-81
2023/10/13 01:48:38;;;;;;;7.55;6.85;;;19.10;96.70;;;;;;4990183;28;20046;-80
2023/10/13 01:51:09;;;;;;;9.68;6.70;;;19.20;96.70;;;;;;5000591;28;20133;-80
2023/10/13 01:53:43;;;;;;;7.70;6.90;;;19.20;96.70;;;;;;4989395;28;20045;-81
2023/10/13 02:00:41;;;;;;;7.95;6.60;;;19.10;96.70;;;;;;5208601;23;20059;-84
2023/10/13 02:06:38;;;;;;;8.13;6.43;;;18.90;96.70;;;;;;4962513;28;20266;-83
2023/10/13 02:10:14;;;;;;;7.90;6.35;;;18.90;96.70;;;;;;4964466;28;20070;-88
2023/10/13 02:12:57;;;;;;;7.13;6.43;;;19.00;96.70;;;;;;4940036;28;20065;-82
2023/10/13 02:15:26;;;;;;;9.43;6.88;;;19.00;96.70;;;;;;4966257;28;20486;-82
2023/10/13 02:17:54;;;;;;;7.43;6.22;;;19.10;96.70;;;;;;4950091;28;20054;-80
2023/10/13 02:20:25;;;;;;;6.80;6.10;;;19.10;96.70;;;;;;4952794;28;20154;-83
2023/10/13 02:22:53;;;;;;;8.32;6.82;;;19.10;96.70;;;;;;4948732;28;20133;-80
2023/10/13 02:28:13;;;;;;;9.15;6.22;;;18.90;96.70;;;;;;4948472;28;20051;-82
2023/10/13 02:30:50;;;;;;;8.15;6.45;;;18.80;96.70;;;;;;4951672;28;20094;-81
2023/10/13 02:33:21;;;;;;;7.93;6.38;;;18.90;96.70;;;;;;4953616;28;20405;-82
2023/10/13 02:35:55;;;;;;;8.43;6.38;;;18.90;96.70;;;;;;4965754;28;20087;-83
2023/10/13 02:38:34;;;;;;;6.95;6.25;;;18.90;96.70;;;;;;4969981;28;20418;-83
2023/10/13 02:41:06;;;;;;;8.43;6.78;;;18.90;96.70;;;;;;4938307;28;20050;-82
2023/10/13 02:43:39;;;;;;;8.00;6.40;;;18.90;96.70;;;;;;4959200;28;20050;-80
2023/10/13 02:46:16;;;;;;;8.13;7.05;;;18.90;96.70;;;;;;4954205;28;20051;-85
2023/10/13 02:48:52;;;;;;;7.68;6.55;;;18.90;96.70;;;;;;4962743;28;20109;-83
2023/10/13 02:51:40;;;;;;;7.80;6.90;;;18.90;96.70;;;;;;4953773;28;20042;-81
2023/10/13 02:54:51;;;;;;;8.43;6.40;;;19.00;96.70;;;;;;5317598;23;20138;-83
2023/10/13 02:57:22;;;;;;;7.53;6.72;;;18.90;96.70;;;;;;4989319;28;20054;-81
2023/10/13 03:00:11;;;;;;;7.28;6.40;;;18.90;96.70;;;;;;4974640;28;20505;-81
2023/10/13 03:02:44;;;;;;;8.55;7.53;;;18.90;96.70;;;;;;4964809;28;20561;-81
2023/10/13 03:05:13;;;;;;;7.68;6.72;;;18.90;96.70;;;;;;4959479;28;20445;-81
2023/10/13 03:07:44;;;;;;;11.43;6.45;;;18.90;96.70;;;;;;4975583;28;20121;-82
2023/10/13 03:10:14;;;;;;;7.40;6.65;;;18.80;96.70;;;;;;4969362;28;20425;-81
2023/10/13 03:12:48;;;;;;;9.02;7.35;;;18.80;96.70;;;;;;4953654;28;20045;-82
2023/10/13 03:15:19;;;;;;;8.07;6.70;;;18.80;96.70;;;;;;4947613;28;20047;-82
2023/10/13 03:17:47;;;;;;;10.02;7.65;;;18.80;96.70;;;;;;4969586;28;20053;-82
2023/10/13 03:20:24;;;;;;;11.13;9.55;;;18.90;96.70;;;;;;4963307;28;20043;-81
2023/10/13 03:22:54;;;;;;;10.98;9.13;;;18.90;96.70;;;;;;4966926;28;20042;-81
2023/10/13 03:25:42;;;;;;;12.48;9.85;;;18.90;96.70;;;;;;4965771;28;20126;-82
2023/10/13 03:28:13;;;;;;;11.38;7.65;;;18.90;96.70;;;;;;4936307;29;20474;-81
2023/10/13 03:30:43;;;;;;;7.70;6.95;;;18.90;96.70;;;;;;4939205;28;20576;-81
2023/10/13 03:33:12;;;;;;;9.10;7.07;;;18.90;96.70;;;;;;4968950;28;20485;-81
2023/10/13 03:35:41;;;;;;;9.85;6.93;;;18.90;96.70;;;;;;4952675;28;20054;-80
2023/10/13 03:38:20;;;;;;;8.30;6.53;;;18.90;96.70;;;;;;4956293;28;20109;-81
2023/10/13 03:41:06;;;;;;;11.13;8.00;;;18.90;96.70;;;;;;4952276;28;20050;-81
2023/10/13 03:44:09;;;;;;;9.57;7.93;;;18.90;96.70;;;;;;4961513;28;20039;-81
2023/10/13 03:46:26;;;;;;;16.35;9.07;;;18.90;96.70;;;;;;4966982;28;20054;-82
2023/10/13 03:49:01;;;;;;;11.93;9.30;;;18.90;96.70;;;;;;4968425;28;20042;-81
2023/10/13 03:51:33;;;;;;;12.98;9.73;;;18.90;96.70;;;;;;4945791;28;20446;-81
2023/10/13 03:54:07;;;;;;;14.32;9.23;;;18.90;96.70;;;;;;4968545;28;20054;-81
2023/10/13 03:56:38;;;;;;;9.77;8.77;;;18.90;96.70;;;;;;4956109;28;20062;-81
2023/10/13 03:59:09;;;;;;;8.40;7.50;;;19.00;96.70;;;;;;4991338;28;20049;-81
2023/10/13 04:12:21;;;;;;;8.77;6.82;;;19.10;96.70;;;;;;4964158;28;20058;-81
2023/10/13 04:17:43;;;;;;;9.85;7.28;;;19.10;96.70;;;;;;4966975;28;20130;-82
2023/10/13 04:20:12;;;;;;;11.65;9.20;;;19.10;96.70;;;;;;4953701;28;20046;-81
2023/10/13 04:38:56;;;;;;;17.85;11.32;;;18.90;96.70;;;;;;4968139;28;20039;-82
2023/10/13 04:41:31;;;;;;;20.80;12.68;;;18.90;96.70;;;;;;4963490;28;20081;-82
2023/10/13 04:44:47;;;;;;;21.92;11.43;;;18.80;96.70;;;;;;4969479;28;20086;-81
2023/10/13 04:49:49;;;;;;;24.73;12.63;;;18.70;96.70;;;;;;4966981;28;20035;-82
2023/10/13 04:55:36;;;;;;;24.80;12.13;;;18.70;96.70;;;;;;4897219;29;20056;-80
2023/10/13 04:58:14;;;;;;;21.90;12.60;;;18.70;96.70;;;;;;4881155;29;20079;-81
2023/10/13 05:01:16;;;;;;;25.27;12.63;;;18.60;96.70;;;;;;4872999;29;20730;-81
2023/10/13 05:04:22;;;;;;;24.05;12.45;;;18.60;96.70;;;;;;4882976;29;20060;-82
2023/10/13 05:46:20;;;;;;;10.50;7.70;;;18.70;96.70;;;;;;4973551;28;20051;-80
2023/10/13 05:48:52;;;;;;;13.45;8.10;;;18.70;96.70;;;;;;4958367;28;20216;-81
2023/10/13 06:30:29;;;;;;;24.17;13.40;;;19.20;96.70;;;;;;4928262;28;20051;-81
2023/10/13 06:32:58;;;;;;;29.33;15.27;;;19.30;96.70;;;;;;4967714;28;20410;-81
2023/10/13 06:35:26;;;;;;;31.80;16.08;;;19.30;96.70;;;;;;4949714;28;20161;-83
2023/10/13 06:37:59;;;;;;;32.88;17.23;;;19.30;96.70;;;;;;4966158;28;20043;-79
2023/10/13 06:43:23;;;;;;;34.92;17.50;;;19.40;96.70;;;;;;4951584;28;20119;-81
2023/10/13 06:46:01;;;;;;;34.17;18.10;;;19.40;96.70;;;;;;4967331;28;20038;-82
2023/10/13 06:48:34;;;;;;;34.20;17.63;;;19.40;96.70;;;;;;4960017;28;20091;-81
2023/10/13 06:51:17;;;;;;;36.47;17.40;;;19.50;96.70;;;;;;4967180;28;20047;-82
2023/10/13 06:53:49;;;;;;;32.50;16.77;;;19.70;96.70;;;;;;4953883;28;20047;-82
2023/10/13 06:56:52;;;;;;;35.88;16.40;;;19.50;96.70;;;;;;4972173;28;20069;-82
2023/10/13 06:59:14;;;;;;;34.67;16.67;;;19.50;96.70;;;;;;4973032;28;20053;-81
2023/10/13 07:01:44;;;;;;;33.28;16.30;;;19.50;96.70;;;;;;4982331;28;20076;-81
2023/10/13 07:04:13;;;;;;;38.15;16.17;;;19.50;96.70;;;;;;4977292;28;20063;-79
2023/10/13 07:06:47;;;;;;;33.35;15.13;;;19.50;96.70;;;;;;4973235;28;20074;-82
2023/10/13 07:12:03;;;;;;;;;;;19.60;96.70;;;;;;4970068;28;20082;-81
2023/10/13 07:14:33;;;;;;;25.85;13.57;;;19.70;96.70;;;;;;4960914;28;19926;-81
2023/10/13 07:17:04;;;;;;;27.23;13.20;;;19.80;96.70;;;;;;4943819;28;20118;-81
2023/10/13 07:19:33;;;;;;;22.90;12.93;;;19.90;96.70;;;;;;4969235;28;21007;-81
2023/10/13 07:22:20;;;;;;;28.30;14.20;;;19.90;96.70;;;;;;4974003;28;20053;-80
2023/10/13 07:24:49;;;;;;;29.50;15.95;;;19.90;96.70;;;;;;4963166;28;20046;-81
2023/10/13 07:27:23;;;;;;;33.65;16.70;;;20.00;96.70;;;;;;4961715;28;20427;-82
2023/10/13 07:29:56;;;;;;;39.20;17.65;;;19.90;96.70;;;;;;4963013;28;20723;-82
2023/10/13 07:32:26;;;;;;;33.25;16.90;;;19.90;96.70;;;;;;4964397;28;20043;-81
2023/10/13 07:34:57;;;;;;;29.38;16.17;;;20.00;96.70;;;;;;4964335;28;20453;-82
2023/10/13 07:37:28;;;;;;;28.73;16.02;;;20.10;96.70;;;;;;4970089;28;20073;-83
2023/10/13 07:40:00;;;;;;;29.48;15.60;;;20.10;96.70;;;;;;4969367;28;20047;-83
2023/10/13 07:42:38;;;;;;;28.50;15.23;;;20.20;96.70;;;;;;4954061;28;20603;-83
2023/10/13 07:45:08;;;;;;;30.33;16.15;;;20.20;96.70;;;;;;4972262;28;20047;-84
2023/10/13 07:47:39;;;;;;;26.38;16.10;;;20.20;96.70;;;;;;4969625;28;20070;-83
2023/10/13 07:50:09;;;;;;;26.55;15.48;;;20.30;96.70;;;;;;4966683;28;20507;-83
2023/10/13 07:52:40;;;;;;;28.42;15.95;;;20.40;96.70;;;;;;4966704;28;20093;-84
2023/10/13 07:55:11;;;;;;;27.45;15.48;;;20.30;96.70;;;;;;4969926;28;20058;-84
2023/10/13 07:57:58;;;;;;;25.15;15.43;;;20.40;96.70;;;;;;4954854;28;20047;-84
2023/10/13 08:08:59;;;;;;;22.17;13.68;;;20.70;96.70;;;;;;4946253;29;20141;-84
2023/10/13 08:11:30;;;;;;;18.63;13.32;;;20.70;96.70;;;;;;4929054;29;21290;-82
2023/10/13 08:14:11;;;;;;;18.25;13.32;;;20.70;96.70;;;;;;4931512;29;20047;-84
2023/10/13 08:19:32;;;;;;;16.92;12.45;;;20.70;96.70;;;;;;4922267;29;20091;-83
2023/10/13 08:27:35;;;;;;;18.15;13.35;;;21.00;96.70;;;;;;4921702;29;20052;-82
2023/10/13 08:32:54;;;;;;;15.73;12.27;;;21.10;96.70;;;;;;4923777;29;20591;-82
2023/10/13 08:35:34;;;;;;;12.38;10.80;;;21.20;96.70;;;;;;4910040;29;20249;-83
2023/10/13 08:38:17;;;;;;;13.73;10.73;;;21.20;96.70;;;;;;4928303;29;20055;-81
2023/10/13 08:43:50;;;;;;;11.38;9.45;;;21.20;96.70;;;;;;4971233;28;20058;-80
2023/10/13 08:46:31;;;;;;;10.68;8.65;;;21.30;96.70;;;;;;4972178;28;20053;-82
2023/10/13 08:49:08;;;;;;;10.85;9.48;;;21.40;96.70;;;;;;4969003;28;20047;-81
2023/10/13 08:51:44;;;;;;;9.77;8.63;;;21.50;96.70;;;;;;4953941;28;20055;-82
2023/10/13 08:54:33;;;;;;;10.38;8.50;;;21.50;96.70;;;;;;4978251;28;20050;-81
2023/10/13 08:59:55;;;;;;;10.32;9.27;;;21.70;96.70;;;;;;4967885;28;20050;-83
2023/10/13 09:08:09;;;;;;;9.73;8.25;;;22.00;96.70;;;;;;4968399;28;20054;-84
2023/10/13 09:11:05;;;;;;;11.32;8.75;;;22.00;96.70;;;;;;4972847;28;20050;-80
2023/10/13 09:13:45;;;;;;;7.80;6.97;;;22.10;96.70;;;;;;4951561;28;20046;-81
2023/10/13 09:19:04;;;;;;;8.30;7.05;;;22.30;96.70;;;;;;4969460;28;20062;-81
2023/10/13 09:24:29;;;;;;;8.98;8.15;;;22.50;96.70;;;;;;4972023;28;20054;-81
2023/10/13 09:27:01;;;;;;;9.20;7.20;;;22.40;96.70;;;;;;4972450;28;20054;-81
2023/10/13 09:29:29;;;;;;;9.43;7.22;;;22.40;96.70;;;;;;4965295;28;20055;-80
2023/10/13 09:32:03;;;;;;;9.20;7.53;;;22.50;96.70;;;;;;4964752;28;20501;-79
2023/10/13 09:34:33;;;;;;;9.52;7.78;;;22.70;96.70;;;;;;4973829;28;20489;-80
2023/10/13 09:37:04;;;;;;;8.55;6.97;;;22.70;96.70;;;;;;4964821;28;20046;-80
2023/10/13 09:40:24;;;;;;;8.43;6.57;;;22.70;96.70;;;;;;4964548;28;20050;-79
2023/10/13 09:42:26;;;;;;;8.70;7.80;;;22.90;96.70;;;;;;4958798;28;20069;-80
2023/10/13 09:44:59;;;;;;;13.10;7.05;;;22.90;96.70;;;;;;4976014;28;20137;-79
2023/10/13 09:47:36;;;;;;;11.85;7.75;;;23.00;96.70;;;;;;4972925;28;20046;-79
2023/10/13 09:50:13;;;;;;;9.40;7.00;;;23.20;96.70;;;;;;4971999;28;20137;-79
2023/10/13 09:52:45;;;;;;;10.75;7.63;;;23.30;96.70;;;;;;4973347;28;20055;-79
2023/10/13 09:55:21;;;;;;;9.70;7.50;;;23.40;96.70;;;;;;4972534;28;20062;-80
2023/10/13 09:58:11;;;;;;;10.43;6.78;;;23.40;96.70;;;;;;4958566;28;20593;-80
2023/10/13 10:00:58;;;;;;;14.77;7.25;;;23.60;96.70;;;;;;4968551;28;20093;-80
2023/10/13 10:06:13;;;;;;;9.00;7.18;;;23.80;96.70;;;;;;4969728;28;20474;-79
2023/10/13 10:08:50;;;;;;;8.00;6.57;;;23.90;96.70;;;;;;4959938;28;20058;-80
2023/10/13 10:12:18;;;;;;;7.45;6.65;;;24.00;96.70;;;;;;4971520;28;20452;-80
2023/10/13 10:15:13;;;;;;;8.13;5.88;;;24.10;96.70;;;;;;4958639;28;20145;-79
2023/10/13 10:17:42;;;;;;;13.27;7.47;;;24.20;96.70;;;;;;4976605;28;20051;-80
2023/10/13 10:20:19;;;;;;;12.18;7.60;;;24.30;96.70;;;;;;4956849;28;20047;-79
2023/10/13 10:23:00;;;;;;;14.57;7.18;;;24.30;96.70;;;;;;4945844;28;20051;-80
2023/10/13 10:25:34;;;;;;;11.07;6.80;;;24.30;96.70;;;;;;4971179;28;20093;-79
2023/10/13 10:28:06;;;;;;;13.93;7.63;;;24.30;96.70;;;;;;4976826;28;20134;-80
2023/10/13 10:30:38;;;;;;;11.20;6.72;;;24.40;96.70;;;;;;4973600;28;20055;-79
2023/10/13 10:33:11;;;;;;;12.13;6.80;;;24.50;96.70;;;;;;4974476;28;20055;-80
2023/10/13 10:35:42;;;;;;;11.80;7.03;;;24.60;96.70;;;;;;4974116;28;20045;-79
2023/10/13 10:38:11;;;;;;;6.97;5.95;;;24.60;96.70;;;;;;4966762;28;20620;-79
2023/10/13 10:40:57;;;;;;;6.38;5.68;;;24.60;96.70;;;;;;4975380;28;20076;-78
2023/10/13 10:43:41;;;;;;;7.75;5.63;;;24.80;96.70;;;;;;4972412;28;20069;-79
2023/10/13 10:46:11;;;;;;;9.07;5.68;;;24.90;96.70;;;;;;4984639;28;20050;-79
2023/10/13 10:48:43;;;;;;;6.72;5.22;;;25.00;96.70;;;;;;4980190;28;20426;-79
2023/10/13 10:51:15;;;;;;;6.22;4.90;;;25.10;96.70;;;;;;4979002;28;20117;-79
2023/10/13 10:53:44;;;;;;;7.05;5.07;;;25.10;96.70;;;;;;4972949;28;20552;-79
2023/10/13 10:56:25;;;;;;;7.70;5.10;;;25.10;96.70;;;;;;4992171;28;20603;-79
2023/10/13 10:58:57;;;;;;;6.65;5.30;;;25.20;96.70;;;;;;4983851;28;20125;-80
2023/10/13 11:01:33;;;;;;;5.70;5.15;;;25.20;96.70;;;;;;4972252;28;20058;-79
2023/10/13 11:06:58;;;;;;;7.40;5.18;;;25.30;96.70;;;;;;4887741;29;20596;-81
2023/10/13 11:11:57;;;;;;;6.97;4.80;;;25.50;96.70;;;;;;4892234;29;20163;-80
2023/10/13 11:14:28;;;;;;;6.80;4.72;;;25.60;96.70;;;;;;4892491;29;20075;-80
2023/10/13 11:19:55;;;;;;;6.07;4.97;;;25.50;96.70;;;;;;4885158;29;20060;-79
2023/10/13 11:22:29;;;;;;;5.78;5.18;;;25.60;96.70;;;;;;4888461;29;20198;-80
2023/10/13 11:25:09;;;;;;;6.65;5.28;;;25.70;96.70;;;;;;4866819;29;20048;-79
2023/10/13 11:27:55;;;;;;;7.85;5.68;;;25.90;96.70;;;;;;4860923;29;20602;-79
2023/10/13 11:30:31;;;;;;;7.32;4.88;;;25.90;96.70;;;;;;4873363;29;20652;-80
2023/10/13 11:33:06;;;;;;;5.65;4.68;;;26.00;96.70;;;;;;4875361;29;20053;-80
2023/10/13 11:38:27;;;;;;;;;;;26.20;96.70;;;;;;4868781;29;20068;-80
2023/10/13 11:43:36;;;;;;;;;;;26.40;96.70;;;;;;4899240;28;20549;-80
2023/10/13 11:48:36;;;;;;;7.07;5.57;;;26.60;96.70;;;;;;4962107;28;20460;-79
2023/10/13 11:51:08;;;;;;;6.25;4.93;;;26.70;96.70;;;;;;4946974;28;20055;-80
2023/10/13 11:53:37;;;;;;;5.95;4.68;;;27.00;96.70;;;;;;4947931;28;20057;-79
2023/10/13 11:56:11;;;;;;;6.35;5.50;;;27.20;96.70;;;;;;4952001;28;20065;-80
2023/10/13 11:58:40;;;;;;;5.95;4.78;;;27.20;96.70;;;;;;5005714;28;20411;-80
2023/10/13 12:06:42;;;;;;;7.05;5.65;;;27.60;96.70;;;;;;4998077;28;20064;-80
2023/10/13 12:11:50;;;;;;;7.95;5.07;;;27.70;96.70;;;;;;4974217;28;20061;-81
2023/10/13 12:14:29;;;;;;;5.47;4.68;;;27.70;96.70;;;;;;4964915;28;20046;-80
2023/10/13 12:17:10;;;;;;;5.65;4.63;;;27.80;96.70;;;;;;4982547;28;20054;-79
2023/10/13 12:19:40;;;;;;;19.85;5.22;;;27.90;96.70;;;;;;4988264;28;20049;-80
2023/10/13 12:22:28;;;;;;;8.73;4.68;;;27.80;96.70;;;;;;4988010;28;20048;-79
2023/10/13 12:24:56;;;;;;;7.25;4.30;;;27.90;96.70;;;;;;4981589;28;20042;-80
2023/10/13 12:27:35;;;;;;;9.35;4.70;;;28.10;96.70;;;;;;4987015;28;20050;-80
2023/10/13 12:30:07;;;;;;;5.32;4.20;;;28.00;96.70;;;;;;4999849;28;20045;-80
2023/10/13 12:32:37;;;;;;;7.35;4.38;;;27.90;96.70;;;;;;4957192;28;20081;-80
2023/10/13 12:48:58;;;;;;;6.50;4.00;;;28.20;96.70;;;;;;4992236;28;19926;-80
2023/10/13 12:54:04;;;;;;;20.88;5.38;;;28.20;96.70;;;;;;4991847;28;20125;-80
2023/10/13 12:56:32;;;;;;;9.30;4.10;;;28.20;96.70;;;;;;4990746;28;20168;-80
2023/10/13 12:59:00;;;;;;;6.20;4.05;;;28.00;96.70;;;;;;4984323;28;20100;-79
2023/10/13 13:01:32;;;;;;;6.63;4.38;;;28.00;96.70;;;;;;4985611;28;20053;-77
2023/10/13 13:04:03;;;;;;;5.50;4.25;;;28.00;96.70;;;;;;4979870;28;20056;-81
2023/10/13 13:06:32;;;;;;;6.97;4.28;;;28.10;96.70;;;;;;4992433;28;20100;-81
2023/10/13 13:09:00;;;;;;;10.38;4.53;;;28.10;96.70;;;;;;4971998;28;20047;-81
2023/10/13 13:11:29;;;;;;;8.05;4.82;;;28.00;96.70;;;;;;4983051;28;20101;-81
2023/10/13 13:13:57;;;;;;;6.35;4.30;;;28.00;96.70;;;;;;4962683;28;20062;-80
2023/10/13 13:16:30;;;;;;;4.80;4.15;;;27.90;96.70;;;;;;4987290;28;20115;-80
2023/10/13 13:18:58;;;;;;;6.80;4.57;;;27.90;96.70;;;;;;4991090;28;20073;-80
2023/10/13 13:21:28;;;;;;;5.32;4.35;;;28.00;96.70;;;;;;4981082;28;20137;-80
2023/10/13 13:23:56;;;;;;;5.05;3.83;;;28.00;96.70;;;;;;4983482;28;20137;-80
2023/10/13 13:26:24;;;;;;;4.80;3.90;;;28.00;96.70;;;;;;4989847;28;20048;-79
2023/10/13 13:28:52;;;;;;;8.70;4.45;;;27.90;96.70;;;;;;4986701;28;20787;-80
2023/10/13 13:31:29;;;;;;;6.15;4.40;;;28.00;96.70;;;;;;4982418;28;20121;-80
2023/10/13 13:33:57;;;;;;;30.02;5.72;;;27.90;96.70;;;;;;4986736;28;20699;-80
2023/10/13 13:36:27;;;;;;;10.05;4.43;;;28.00;96.70;;;;;;4980536;28;20053;-80
2023/10/13 13:39:00;;;;;;;35.15;6.55;;;27.90;96.70;;;;;;4978919;28;20594;-79
2023/10/13 13:41:28;;;;;;;10.55;4.45;;;27.80;96.70;;;;;;4983994;28;20038;-77
2023/10/13 13:43:56;;;;;;;7.43;4.25;;;27.80;96.70;;;;;;5005077;28;20050;-79
2023/10/13 13:46:27;;;;;;;14.00;4.47;;;27.80;96.70;;;;;;4982601;28;20065;-79
2023/10/13 13:48:59;;;;;;;6.65;4.13;;;27.70;96.70;;;;;;4979601;28;20050;-80
2023/10/13 13:51:30;;;;;;;35.65;6.80;;;27.60;96.70;;;;;;4976987;28;20049;-80
2023/10/13 13:53:59;;;;;;;6.75;4.50;;;27.60;96.70;;;;;;4981514;28;20080;-80
2023/10/13 13:56:38;;;;;;;72.68;10.05;;;27.60;96.70;;;;;;4974644;28;20053;-78
2023/10/13 13:59:09;;;;;;;8.43;4.60;;;27.50;96.70;;;;;;4985848;28;20053;-77
2023/10/13 14:01:37;;;;;;;7.13;4.63;;;27.50;96.70;;;;;;4979888;28;20141;-78
2023/10/13 14:04:09;;;;;;;7.75;4.22;;;27.60;96.70;;;;;;4993265;28;20042;-78
2023/10/13 14:06:40;;;;;;;19.75;4.82;;;27.70;96.70;;;;;;4982375;28;20050;-79
2023/10/13 14:14:57;;;;;;;8.75;4.50;;;27.90;96.70;;;;;;4925573;29;20047;-79
2023/10/13 14:17:35;;;;;;;53.70;8.57;;;28.10;96.70;;;;;;4928928;29;20051;-80
2023/10/13 14:20:14;;;;;;;87.15;10.73;;;28.10;96.70;;;;;;4936795;29;20136;-80
2023/10/13 14:22:52;;;;;;;9.85;3.47;;;28.30;96.70;;;;;;4925381;29;20076;-80
2023/10/13 14:25:24;;;;;;;13.90;4.50;;;28.10;96.70;;;;;;4913600;29;20075;-79
2023/10/13 14:27:52;;;;;;;7.88;4.30;;;28.10;96.70;;;;;;4914019;29;20066;-79
2023/10/13 14:30:21;;;;;;;39.97;5.90;;;28.40;96.70;;;;;;4925715;29;20063;-79
2023/10/13 14:32:49;;;;;;;9.00;4.50;;;28.50;96.70;;;;;;4943111;29;20051;-79
2023/10/13 14:35:17;;;;;;;7.95;4.07;;;28.60;96.70;;;;;;4921885;29;20057;-79
2023/10/13 14:37:46;;;;;;;9.05;4.45;;;28.70;96.70;;;;;;4920843;29;20055;-79
2023/10/13 14:40:15;;;;;;;6.75;4.18;;;28.70;96.70;;;;;;4925993;29;20703;-80
2023/10/13 14:42:43;;;;;;;13.55;4.28;;;28.80;96.70;;;;;;4943375;29;20442;-79
2023/10/13 14:45:16;;;;;;;25.30;5.10;;;28.80;96.70;;;;;;4942121;29;20058;-81
2023/10/13 14:47:44;;;;;;;25.50;4.63;;;28.90;96.70;;;;;;4931302;28;20168;-81
2023/10/13 14:50:22;;;;;;;12.93;4.43;;;28.90;96.70;;;;;;4986634;28;20489;-80
2023/10/13 14:52:51;;;;;;;11.82;4.00;;;28.70;96.70;;;;;;4980540;28;20045;-80
2023/10/13 14:55:19;;;;;;;7.15;3.40;;;28.80;96.70;;;;;;4971209;28;20051;-79
2023/10/13 14:57:48;;;;;;;28.20;5.38;;;28.90;96.70;;;;;;4958167;28;20058;-79
2023/10/13 15:00:24;;;;;;;47.45;6.13;;;29.10;96.70;;;;;;4985102;28;20074;-79
2023/10/13 15:02:54;;;;;;;7.25;3.67;;;29.20;96.70;;;;;;4972175;28;20057;-81
2023/10/13 15:05:29;;;;;;;10.75;4.13;;;29.70;96.70;;;;;;4981151;28;20054;-80
2023/10/13 15:07:59;;;;;;;11.75;3.75;;;29.60;96.70;;;;;;4975722;28;20050;-80
2023/10/13 15:10:27;;;;;;;6.30;3.85;;;29.80;96.70;;;;;;4985730;28;20594;-80
2023/10/13 15:12:55;;;;;;;7.03;3.78;;;30.20;96.70;;;;;;4960611;28;20050;-80
2023/10/13 15:15:23;;;;;;;28.13;6.00;;;30.30;96.70;;;;;;4977786;28;20051;-81
2023/10/13 15:17:53;;;;;;;9.73;4.00;;;30.10;96.70;;;;;;4977840;28;20054;-81
2023/10/13 15:20:21;;;;;;;26.70;5.43;;;30.20;96.70;;;;;;4978319;28;20664;-81
2023/10/13 15:22:49;;;;;;;14.63;3.78;;;30.30;96.70;;;;;;4976362;28;20038;-81
2023/10/13 15:25:28;;;;;;;8.73;3.83;;;30.40;96.70;;;;;;4969860;28;20506;-80
2023/10/13 15:28:02;;;;;;;34.70;5.65;;;30.40;96.70;;;;;;4968965;28;20536;-81
2023/10/13 15:31:22;;;;;;;19.60;4.97;;;30.50;96.70;;;;;;4959543;28;20567;-81
2023/10/13 15:33:25;;;;;;;10.02;3.53;;;30.40;96.70;;;;;;4956639;28;20457;-80
2023/10/13 15:35:53;;;;;;;6.22;3.80;;;30.70;96.70;;;;;;4975589;28;20134;-80
2023/10/13 15:38:22;;;;;;;9.23;4.28;;;30.90;96.70;;;;;;4982451;28;20137;-80
2023/10/13 15:40:54;;;;;;;8.05;4.07;;;30.60;96.70;;;;;;4969779;28;20063;-80
2023/10/13 15:43:23;;;;;;;8.27;4.53;;;30.30;96.70;;;;;;4985176;28;20054;-79
2023/10/13 15:45:50;;;;;;;9.60;4.10;;;29.70;96.70;;;;;;4969390;28;20039;-80
2023/10/13 15:48:22;;;;;;;7.35;4.65;;;28.80;96.70;;;;;;4952921;28;20055;-79
2023/10/13 15:50:52;;;;;;;6.47;3.80;;;27.80;96.70;;;;;;4975794;28;20054;-79
2023/10/13 15:53:20;;;;;;;7.22;4.10;;;27.40;96.70;;;;;;4970181;28;20046;-80
2023/10/13 15:55:48;;;;;;;8.63;4.35;;;26.90;96.70;;;;;;4958914;28;20059;-83
2023/10/13 15:58:17;;;;;;;7.30;4.18;;;26.60;96.70;;;;;;4968702;28;20039;-80
2023/10/13 16:00:46;;;;;;;7.70;3.75;;;26.30;96.70;;;;;;4963781;28;20042;-81
2023/10/13 16:03:17;;;;;;;10.60;4.78;;;26.10;96.70;;;;;;4963021;28;20101;-80
2023/10/13 16:05:47;;;;;;;6.90;4.97;;;25.90;96.70;;;;;;4968968;28;20122;-79
2023/10/13 16:08:15;;;;;;;7.90;4.57;;;25.80;96.70;;;;;;4985553;28;20129;-80
2023/10/13 16:10:46;;;;;;;7.82;4.03;;;25.60;96.70;;;;;;4976447;28;20145;-81
2023/10/13 16:13:19;;;;;;;6.30;4.10;;;25.50;96.70;;;;;;4982759;28;20050;-79
2023/10/13 16:15:50;;;;;;;36.15;6.78;;;25.40;96.70;;;;;;4974772;28;20057;-81
2023/10/13 16:18:21;;;;;;;25.10;5.60;;;25.30;96.70;;;;;;4976822;28;20053;-81
2023/10/13 16:20:50;;;;;;;11.45;4.75;;;25.20;96.70;;;;;;4953884;28;20141;-83
2023/10/13 16:23:19;;;;;;;8.52;4.85;;;25.10;96.70;;;;;;4975414;28;20083;-78
2023/10/13 16:25:47;;;;;;;8.25;4.30;;;25.00;96.70;;;;;;4978582;28;20049;-79
2023/10/13 16:28:15;;;;;;;12.50;5.00;;;24.80;96.70;;;;;;4973935;28;20035;-78
2023/10/13 16:30:44;;;;;;;11.23;5.15;;;24.70;96.70;;;;;;4978035;28;20066;-79
2023/10/13 16:33:13;;;;;;;23.00;6.03;;;24.60;96.70;;;;;;4975937;28;20156;-78
2023/10/13 16:35:45;;;;;;;13.85;6.18;;;24.60;96.70;;;;;;4972929;28;20043;-78
2023/10/13 16:38:14;;;;;;;11.43;6.35;;;24.50;96.70;;;;;;4968903;28;20052;-78
2023/10/13 16:40:42;;;;;;;9.95;5.93;;;24.30;96.70;;;;;;4982964;28;20049;-78
2023/10/13 16:43:12;;;;;;;8.55;5.78;;;24.30;96.70;;;;;;4974526;28;20042;-77
2023/10/13 16:45:44;;;;;;;11.10;5.55;;;24.10;96.70;;;;;;4928296;28;20080;-78
2023/10/13 16:48:14;;;;;;;11.23;5.95;;;24.10;96.70;;;;;;4983891;28;20484;-77
2023/10/13 16:50:43;;;;;;;8.10;5.53;;;24.00;96.70;;;;;;4980223;28;20490;-78
2023/10/13 16:53:11;;;;;;;12.63;5.18;;;23.90;96.70;;;;;;4978097;28;20085;-78
2023/10/13 16:55:41;;;;;;;10.15;5.18;;;23.90;96.70;;;;;;4970597;28;20134;-78